sensor_id;sensor_type;location;lat;lon;timestamp;P1;durP1;ratioP1;P2;durP2;ratioP2
20908;SDS011;10614;53.198;6.570;2023-02-28T00:00:25;2.90;;;1.40;;
20908;SDS011;10614;53.198;6.570;2023-02-28T00:02:27;2.97;;;1.00;;
20908;SDS011;10614;53.198;6.570;2023-02-28T00:04:29;5.18;;;1.17;;
20908;SDS011;10614;53.198;6.570;2023-02-28T00:06:30;1.33;;;0.98;;
20908;SDS011;10614;53.198;6.570;2023-02-28T00:08:33;2.88;;;1.15;;
20908;SDS011;10614;53.198;6.570;2023-02-28T00:10:35;2.30;;;1.15;;
20908;SDS011;10614;53.198;6.570;2023-02-28T00:12:37;3.85;;;1.05;;
20908;SDS011;10614;53.198;6.570;2023-02-28T00:14:39;5.65;;;1.20;;
20908;SDS011;10614;53.198;6.570;2023-02-28T00:16:40;3.58;;;1.13;;
20908;SDS011;10614;53.198;6.570;2023-02-28T00:18:44;2.28;;;0.93;;
20908;SDS011;10614;53.198;6.570;2023-02-28T00:20:47;1.50;;;1.00;;
20908;SDS011;10614;53.198;6.570;2023-02-28T00:22:49;2.90;;;1.05;;
20908;SDS011;10614;53.198;6.570;2023-02-28T00:24:54;2.50;;;1.15;;
20908;SDS011;10614;53.198;6.570;2023-02-28T00:26:55;4.05;;;1.25;;
20908;SDS011;10614;53.198;6.570;2023-02-28T00:28:57;2.55;;;1.20;;
20908;SDS011;10614;53.198;6.570;2023-02-28T00:30:59;6.78;;;1.33;;
20908;SDS011;10614;53.198;6.570;2023-02-28T00:33:01;3.42;;;1.20;;
20908;SDS011;10614;53.198;6.570;2023-02-28T00:35:03;7.97;;;1.90;;
20908;SDS011;10614;53.198;6.570;2023-02-28T00:37:06;2.30;;;1.20;;
20908;SDS011;10614;53.198;6.570;2023-02-28T00:39:13;2.92;;;1.30;;
20908;SDS011;10614;53.198;6.570;2023-02-28T00:41:16;3.95;;;1.73;;
20908;SDS011;10614;53.198;6.570;2023-02-28T00:43:18;3.10;;;1.35;;
20908;SDS011;10614;53.198;6.570;2023-02-28T00:45:19;2.78;;;1.33;;
20908;SDS011;10614;53.198;6.570;2023-02-28T00:47:21;3.30;;;1.45;;
20908;SDS011;10614;53.198;6.570;2023-02-28T00:49:23;4.88;;;1.65;;
20908;SDS011;10614;53.198;6.570;2023-02-28T00:51:25;2.35;;;1.25;;
20908;SDS011;10614;53.198;6.570;2023-02-28T00:53:27;2.63;;;1.40;;
20908;SDS011;10614;53.198;6.570;2023-02-28T00:55:28;2.00;;;1.20;;
20908;SDS011;10614;53.198;6.570;2023-02-28T00:57:31;3.65;;;1.42;;
20908;SDS011;10614;53.198;6.570;2023-02-28T00:59:36;2.92;;;1.38;;
20908;SDS011;10614;53.198;6.570;2023-02-28T01:01:38;3.17;;;1.20;;
20908;SDS011;10614;53.198;6.570;2023-02-28T01:03:40;4.60;;;1.40;;
20908;SDS011;10614;53.198;6.570;2023-02-28T01:05:42;4.35;;;1.50;;
20908;SDS011;10614;53.198;6.570;2023-02-28T01:07:45;2.50;;;1.25;;
20908;SDS011;10614;53.198;6.570;2023-02-28T01:09:46;1.60;;;1.02;;
20908;SDS011;10614;53.198;6.570;2023-02-28T01:11:49;2.95;;;1.33;;
20908;SDS011;10614;53.198;6.570;2023-02-28T01:13:52;2.50;;;1.02;;
20908;SDS011;10614;53.198;6.570;2023-02-28T01:15:54;2.63;;;1.30;;
20908;SDS011;10614;53.198;6.570;2023-02-28T01:17:57;1.77;;;1.10;;
20908;SDS011;10614;53.198;6.570;2023-02-28T01:19:59;4.85;;;1.42;;
20908;SDS011;10614;53.198;6.570;2023-02-28T01:22:04;2.63;;;1.33;;
20908;SDS011;10614;53.198;6.570;2023-02-28T01:24:07;5.85;;;1.65;;
20908;SDS011;10614;53.198;6.570;2023-02-28T01:26:09;3.35;;;1.30;;
20908;SDS011;10614;53.198;6.570;2023-02-28T01:30:16;3.55;;;1.27;;
20908;SDS011;10614;53.198;6.570;2023-02-28T01:32:18;5.10;;;1.27;;
20908;SDS011;10614;53.198;6.570;2023-02-28T01:34:20;3.47;;;1.05;;
20908;SDS011;10614;53.198;6.570;2023-02-28T01:36:22;2.50;;;1.20;;
20908;SDS011;10614;53.198;6.570;2023-02-28T01:38:26;4.23;;;1.50;;
20908;SDS011;10614;53.198;6.570;2023-02-28T01:40:28;3.58;;;1.25;;
20908;SDS011;10614;53.198;6.570;2023-02-28T01:42:29;3.50;;;1.30;;
20908;SDS011;10614;53.198;6.570;2023-02-28T01:47:11;3.03;;;1.38;;
20908;SDS011;10614;53.198;6.570;2023-02-28T01:49:14;3.40;;;1.23;;
20908;SDS011;10614;53.198;6.570;2023-02-28T01:51:18;5.35;;;1.55;;
20908;SDS011;10614;53.198;6.570;2023-02-28T01:53:26;7.00;;;1.63;;
20908;SDS011;10614;53.198;6.570;2023-02-28T01:55:33;4.10;;;1.70;;
20908;SDS011;10614;53.198;6.570;2023-02-28T01:57:37;4.93;;;1.63;;
20908;SDS011;10614;53.198;6.570;2023-02-28T01:59:42;5.57;;;2.00;;
20908;SDS011;10614;53.198;6.570;2023-02-28T02:01:48;3.22;;;1.63;;
20908;SDS011;10614;53.198;6.570;2023-02-28T02:03:52;4.40;;;1.20;;
20908;SDS011;10614;53.198;6.570;2023-02-28T02:05:56;4.22;;;1.50;;
20908;SDS011;10614;53.198;6.570;2023-02-28T02:08:01;5.13;;;1.77;;
20908;SDS011;10614;53.198;6.570;2023-02-28T02:10:06;2.65;;;1.50;;
20908;SDS011;10614;53.198;6.570;2023-02-28T02:12:17;3.97;;;1.70;;
20908;SDS011;10614;53.198;6.570;2023-02-28T02:14:33;3.13;;;1.60;;
20908;SDS011;10614;53.198;6.570;2023-02-28T02:16:48;4.45;;;1.48;;
20908;SDS011;10614;53.198;6.570;2023-02-28T02:19:01;3.92;;;1.90;;
20908;SDS011;10614;53.198;6.570;2023-02-28T02:23:56;3.95;;;1.90;;
20908;SDS011;10614;53.198;6.570;2023-02-28T02:28:46;4.43;;;1.60;;
20908;SDS011;10614;53.198;6.570;2023-02-28T02:31:16;4.13;;;1.83;;
20908;SDS011;10614;53.198;6.570;2023-02-28T02:36:18;4.07;;;1.50;;
20908;SDS011;10614;53.198;6.570;2023-02-28T02:38:29;3.55;;;1.40;;
20908;SDS011;10614;53.198;6.570;2023-02-28T02:40:35;2.72;;;1.45;;
20908;SDS011;10614;53.198;6.570;2023-02-28T02:42:45;2.30;;;1.33;;
20908;SDS011;10614;53.198;6.570;2023-02-28T02:44:52;2.83;;;1.45;;
20908;SDS011;10614;53.198;6.570;2023-02-28T02:47:02;7.10;;;1.88;;
20908;SDS011;10614;53.198;6.570;2023-02-28T02:49:09;2.28;;;1.23;;
20908;SDS011;10614;53.198;6.570;2023-02-28T02:51:18;2.72;;;1.50;;
20908;SDS011;10614;53.198;6.570;2023-02-28T02:53:24;3.42;;;1.65;;
20908;SDS011;10614;53.198;6.570;2023-02-28T02:55:31;4.25;;;2.10;;
20908;SDS011;10614;53.198;6.570;2023-02-28T02:57:38;3.35;;;1.80;;
20908;SDS011;10614;53.198;6.570;2023-02-28T02:59:46;4.00;;;1.90;;
20908;SDS011;10614;53.198;6.570;2023-02-28T03:01:50;2.70;;;1.40;;
20908;SDS011;10614;53.198;6.570;2023-02-28T03:03:56;3.17;;;1.70;;
20908;SDS011;10614;53.198;6.570;2023-02-28T03:05:59;4.63;;;1.90;;
20908;SDS011;10614;53.198;6.570;2023-02-28T03:08:04;3.63;;;1.38;;
20908;SDS011;10614;53.198;6.570;2023-02-28T03:12:38;3.05;;;1.50;;
20908;SDS011;10614;53.198;6.570;2023-02-28T03:14:50;4.25;;;1.73;;
20908;SDS011;10614;53.198;6.570;2023-02-28T03:17:00;3.92;;;1.75;;
20908;SDS011;10614;53.198;6.570;2023-02-28T03:19:20;4.28;;;1.80;;
20908;SDS011;10614;53.198;6.570;2023-02-28T03:21:34;4.63;;;1.88;;
20908;SDS011;10614;53.198;6.570;2023-02-28T03:23:42;4.60;;;2.08;;
20908;SDS011;10614;53.198;6.570;2023-02-28T03:25:54;6.60;;;2.33;;
20908;SDS011;10614;53.198;6.570;2023-02-28T03:28:02;6.30;;;2.20;;
20908;SDS011;10614;53.198;6.570;2023-02-28T03:30:09;5.85;;;2.80;;
20908;SDS011;10614;53.198;6.570;2023-02-28T03:32:18;5.50;;;2.78;;
20908;SDS011;10614;53.198;6.570;2023-02-28T03:34:28;5.53;;;2.33;;
20908;SDS011;10614;53.198;6.570;2023-02-28T03:36:36;6.53;;;2.92;;
20908;SDS011;10614;53.198;6.570;2023-02-28T03:38:45;6.32;;;3.03;;
20908;SDS011;10614;53.198;6.570;2023-02-28T03:40:51;4.47;;;2.38;;
20908;SDS011;10614;53.198;6.570;2023-02-28T03:43:01;5.72;;;3.17;;
20908;SDS011;10614;53.198;6.570;2023-02-28T03:45:09;4.07;;;2.40;;
20908;SDS011;10614;53.198;6.570;2023-02-28T03:47:14;8.48;;;4.22;;
20908;SDS011;10614;53.198;6.570;2023-02-28T03:49:19;7.57;;;3.63;;
20908;SDS011;10614;53.198;6.570;2023-02-28T03:51:24;7.15;;;3.03;;
20908;SDS011;10614;53.198;6.570;2023-02-28T03:53:30;8.80;;;4.03;;
20908;SDS011;10614;53.198;6.570;2023-02-28T03:55:39;7.20;;;3.20;;
20908;SDS011;10614;53.198;6.570;2023-02-28T03:57:47;5.63;;;2.72;;
20908;SDS011;10614;53.198;6.570;2023-02-28T03:59:59;8.13;;;3.65;;
20908;SDS011;10614;53.198;6.570;2023-02-28T04:02:05;4.40;;;2.70;;
20908;SDS011;10614;53.198;6.570;2023-02-28T04:04:08;7.03;;;3.20;;
20908;SDS011;10614;53.198;6.570;2023-02-28T04:06:13;5.70;;;2.85;;
20908;SDS011;10614;53.198;6.570;2023-02-28T04:08:18;5.97;;;2.83;;
20908;SDS011;10614;53.198;6.570;2023-02-28T04:10:20;9.68;;;3.42;;
20908;SDS011;10614;53.198;6.570;2023-02-28T04:12:23;6.38;;;2.95;;
20908;SDS011;10614;53.198;6.570;2023-02-28T04:14:25;7.45;;;3.05;;
20908;SDS011;10614;53.198;6.570;2023-02-28T04:16:28;6.18;;;2.95;;
20908;SDS011;10614;53.198;6.570;2023-02-28T04:18:30;6.15;;;2.80;;
20908;SDS011;10614;53.198;6.570;2023-02-28T04:20:32;8.90;;;3.10;;
20908;SDS011;10614;53.198;6.570;2023-02-28T04:22:34;6.70;;;3.20;;
20908;SDS011;10614;53.198;6.570;2023-02-28T04:24:36;6.10;;;3.30;;
20908;SDS011;10614;53.198;6.570;2023-02-28T04:26:42;4.85;;;2.40;;
20908;SDS011;10614;53.198;6.570;2023-02-28T04:28:46;8.30;;;3.13;;
20908;SDS011;10614;53.198;6.570;2023-02-28T04:30:53;6.28;;;2.78;;
20908;SDS011;10614;53.198;6.570;2023-02-28T04:32:57;6.10;;;2.50;;
20908;SDS011;10614;53.198;6.570;2023-02-28T04:34:59;4.53;;;2.45;;
20908;SDS011;10614;53.198;6.570;2023-02-28T04:37:01;8.15;;;2.65;;
20908;SDS011;10614;53.198;6.570;2023-02-28T04:39:05;6.57;;;2.20;;
20908;SDS011;10614;53.198;6.570;2023-02-28T04:41:07;6.22;;;2.60;;
20908;SDS011;10614;53.198;6.570;2023-02-28T04:43:08;6.35;;;2.60;;
20908;SDS011;10614;53.198;6.570;2023-02-28T04:45:11;6.25;;;2.58;;
20908;SDS011;10614;53.198;6.570;2023-02-28T04:47:13;5.18;;;2.17;;
20908;SDS011;10614;53.198;6.570;2023-02-28T04:49:15;4.57;;;2.30;;
20908;SDS011;10614;53.198;6.570;2023-02-28T04:51:17;5.95;;;2.92;;
20908;SDS011;10614;53.198;6.570;2023-02-28T04:53:22;6.38;;;2.65;;
20908;SDS011;10614;53.198;6.570;2023-02-28T04:55:24;3.75;;;2.20;;
20908;SDS011;10614;53.198;6.570;2023-02-28T04:57:25;8.25;;;2.78;;
20908;SDS011;10614;53.198;6.570;2023-02-28T04:59:27;5.72;;;2.70;;
20908;SDS011;10614;53.198;6.570;2023-02-28T05:01:31;4.68;;;2.30;;
20908;SDS011;10614;53.198;6.570;2023-02-28T05:03:34;6.18;;;2.42;;
20908;SDS011;10614;53.198;6.570;2023-02-28T05:05:36;6.28;;;2.40;;
20908;SDS011;10614;53.198;6.570;2023-02-28T05:07:37;5.53;;;2.72;;
20908;SDS011;10614;53.198;6.570;2023-02-28T05:09:39;6.60;;;3.20;;
20908;SDS011;10614;53.198;6.570;2023-02-28T05:11:44;5.47;;;2.63;;
20908;SDS011;10614;53.198;6.570;2023-02-28T05:13:46;8.15;;;3.15;;
20908;SDS011;10614;53.198;6.570;2023-02-28T05:15:48;4.35;;;2.22;;
20908;SDS011;10614;53.198;6.570;2023-02-28T05:17:51;6.18;;;3.00;;
20908;SDS011;10614;53.198;6.570;2023-02-28T05:19:53;5.45;;;2.35;;
20908;SDS011;10614;53.198;6.570;2023-02-28T05:21:55;5.65;;;2.72;;
20908;SDS011;10614;53.198;6.570;2023-02-28T05:23:57;6.28;;;3.15;;
20908;SDS011;10614;53.198;6.570;2023-02-28T05:26:00;5.72;;;2.83;;
20908;SDS011;10614;53.198;6.570;2023-02-28T05:28:02;3.92;;;2.03;;
20908;SDS011;10614;53.198;6.570;2023-02-28T05:30:04;5.97;;;2.40;;
20908;SDS011;10614;53.198;6.570;2023-02-28T05:32:10;6.25;;;2.88;;
20908;SDS011;10614;53.198;6.570;2023-02-28T05:34:14;7.57;;;3.70;;
20908;SDS011;10614;53.198;6.570;2023-02-28T05:36:16;5.05;;;2.63;;
20908;SDS011;10614;53.198;6.570;2023-02-28T05:38:17;6.75;;;2.80;;
20908;SDS011;10614;53.198;6.570;2023-02-28T05:40:21;5.60;;;2.83;;
20908;SDS011;10614;53.198;6.570;2023-02-28T05:42:23;6.30;;;2.90;;
20908;SDS011;10614;53.198;6.570;2023-02-28T05:44:25;8.25;;;3.53;;
20908;SDS011;10614;53.198;6.570;2023-02-28T05:46:26;5.55;;;2.35;;
20908;SDS011;10614;53.198;6.570;2023-02-28T05:48:29;5.43;;;2.58;;
20908;SDS011;10614;53.198;6.570;2023-02-28T05:50:32;6.53;;;3.30;;
20908;SDS011;10614;53.198;6.570;2023-02-28T05:52:34;8.55;;;3.78;;
20908;SDS011;10614;53.198;6.570;2023-02-28T05:54:35;9.23;;;3.78;;
20908;SDS011;10614;53.198;6.570;2023-02-28T05:56:37;8.35;;;3.40;;
20908;SDS011;10614;53.198;6.570;2023-02-28T05:58:40;5.40;;;2.50;;
20908;SDS011;10614;53.198;6.570;2023-02-28T06:00:42;11.68;;;4.60;;
20908;SDS011;10614;53.198;6.570;2023-02-28T06:02:44;9.05;;;3.75;;
20908;SDS011;10614;53.198;6.570;2023-02-28T06:04:46;7.60;;;3.28;;
20908;SDS011;10614;53.198;6.570;2023-02-28T06:06:49;10.20;;;4.28;;
20908;SDS011;10614;53.198;6.570;2023-02-28T06:08:51;10.25;;;4.35;;
20908;SDS011;10614;53.198;6.570;2023-02-28T06:10:53;7.97;;;4.03;;
20908;SDS011;10614;53.198;6.570;2023-02-28T06:12:55;7.55;;;3.33;;
20908;SDS011;10614;53.198;6.570;2023-02-28T06:15:00;6.82;;;3.53;;
20908;SDS011;10614;53.198;6.570;2023-02-28T06:17:03;7.40;;;3.55;;
20908;SDS011;10614;53.198;6.570;2023-02-28T06:19:06;7.60;;;3.42;;
20908;SDS011;10614;53.198;6.570;2023-02-28T06:21:08;7.75;;;3.53;;
20908;SDS011;10614;53.198;6.570;2023-02-28T06:23:11;8.45;;;3.30;;
20908;SDS011;10614;53.198;6.570;2023-02-28T06:25:13;9.88;;;3.92;;
20908;SDS011;10614;53.198;6.570;2023-02-28T06:27:14;8.02;;;3.47;;
20908;SDS011;10614;53.198;6.570;2023-02-28T06:29:17;6.03;;;3.13;;
20908;SDS011;10614;53.198;6.570;2023-02-28T06:31:19;10.20;;;3.92;;
20908;SDS011;10614;53.198;6.570;2023-02-28T06:33:21;8.25;;;4.20;;
20908;SDS011;10614;53.198;6.570;2023-02-28T06:35:22;6.55;;;3.47;;
20908;SDS011;10614;53.198;6.570;2023-02-28T06:37:26;7.82;;;3.45;;
20908;SDS011;10614;53.198;6.570;2023-02-28T06:39:29;6.15;;;3.15;;
20908;SDS011;10614;53.198;6.570;2023-02-28T06:41:31;7.75;;;3.90;;
20908;SDS011;10614;53.198;6.570;2023-02-28T06:43:39;9.45;;;3.92;;
20908;SDS011;10614;53.198;6.570;2023-02-28T06:45:42;10.25;;;4.05;;
20908;SDS011;10614;53.198;6.570;2023-02-28T06:47:47;11.18;;;4.80;;
20908;SDS011;10614;53.198;6.570;2023-02-28T06:49:52;10.00;;;4.28;;
20908;SDS011;10614;53.198;6.570;2023-02-28T06:51:54;10.07;;;4.40;;
20908;SDS011;10614;53.198;6.570;2023-02-28T06:53:55;7.28;;;3.53;;
20908;SDS011;10614;53.198;6.570;2023-02-28T06:55:58;7.10;;;3.45;;
20908;SDS011;10614;53.198;6.570;2023-02-28T06:58:00;10.27;;;4.22;;
20908;SDS011;10614;53.198;6.570;2023-02-28T07:00:03;7.95;;;3.58;;
20908;SDS011;10614;53.198;6.570;2023-02-28T07:02:07;7.25;;;3.60;;
20908;SDS011;10614;53.198;6.570;2023-02-28T07:04:09;12.30;;;4.85;;
20908;SDS011;10614;53.198;6.570;2023-02-28T07:06:13;9.82;;;4.53;;
20908;SDS011;10614;53.198;6.570;2023-02-28T07:08:18;8.52;;;4.22;;
20908;SDS011;10614;53.198;6.570;2023-02-28T07:10:19;8.13;;;3.80;;
20908;SDS011;10614;53.198;6.570;2023-02-28T07:12:23;7.95;;;3.78;;
20908;SDS011;10614;53.198;6.570;2023-02-28T07:14:25;9.68;;;4.10;;
20908;SDS011;10614;53.198;6.570;2023-02-28T07:16:26;9.57;;;4.07;;
20908;SDS011;10614;53.198;6.570;2023-02-28T07:18:29;7.10;;;3.72;;
20908;SDS011;10614;53.198;6.570;2023-02-28T07:20:30;7.03;;;3.45;;
20908;SDS011;10614;53.198;6.570;2023-02-28T07:22:32;11.48;;;5.63;;
20908;SDS011;10614;53.198;6.570;2023-02-28T07:24:34;11.95;;;4.80;;
20908;SDS011;10614;53.198;6.570;2023-02-28T07:26:35;9.48;;;4.30;;
20908;SDS011;10614;53.198;6.570;2023-02-28T07:28:38;10.77;;;4.97;;
20908;SDS011;10614;53.198;6.570;2023-02-28T07:30:40;10.77;;;5.30;;
20908;SDS011;10614;53.198;6.570;2023-02-28T07:32:44;11.55;;;5.20;;
20908;SDS011;10614;53.198;6.570;2023-02-28T07:34:46;8.35;;;4.03;;
20908;SDS011;10614;53.198;6.570;2023-02-28T07:36:48;9.70;;;4.13;;
20908;SDS011;10614;53.198;6.570;2023-02-28T07:38:53;8.50;;;3.88;;
20908;SDS011;10614;53.198;6.570;2023-02-28T07:40:55;10.90;;;4.72;;
20908;SDS011;10614;53.198;6.570;2023-02-28T07:42:59;9.02;;;4.50;;
20908;SDS011;10614;53.198;6.570;2023-02-28T07:47:09;9.68;;;4.45;;
20908;SDS011;10614;53.198;6.570;2023-02-28T07:49:11;11.75;;;5.22;;
20908;SDS011;10614;53.198;6.570;2023-02-28T07:51:14;11.70;;;4.72;;
20908;SDS011;10614;53.198;6.570;2023-02-28T07:53:18;10.38;;;4.43;;
20908;SDS011;10614;53.198;6.570;2023-02-28T07:55:20;10.07;;;4.78;;
20908;SDS011;10614;53.198;6.570;2023-02-28T07:57:21;8.98;;;4.10;;
20908;SDS011;10614;53.198;6.570;2023-02-28T07:59:23;12.57;;;5.03;;
20908;SDS011;10614;53.198;6.570;2023-02-28T08:01:28;12.75;;;5.47;;
20908;SDS011;10614;53.198;6.570;2023-02-28T08:03:29;9.98;;;4.93;;
20908;SDS011;10614;53.198;6.570;2023-02-28T08:05:31;9.55;;;4.30;;
20908;SDS011;10614;53.198;6.570;2023-02-28T08:07:33;7.43;;;4.05;;
20908;SDS011;10614;53.198;6.570;2023-02-28T08:09:34;8.55;;;4.13;;
20908;SDS011;10614;53.198;6.570;2023-02-28T08:11:36;8.60;;;4.18;;
20908;SDS011;10614;53.198;6.570;2023-02-28T08:13:38;10.70;;;5.10;;
20908;SDS011;10614;53.198;6.570;2023-02-28T08:15:40;10.18;;;3.78;;
20908;SDS011;10614;53.198;6.570;2023-02-28T08:17:46;11.15;;;4.80;;
20908;SDS011;10614;53.198;6.570;2023-02-28T08:19:48;8.75;;;4.38;;
20908;SDS011;10614;53.198;6.570;2023-02-28T08:21:50;10.80;;;4.70;;
20908;SDS011;10614;53.198;6.570;2023-02-28T08:23:51;10.13;;;4.18;;
20908;SDS011;10614;53.198;6.570;2023-02-28T08:25:53;9.43;;;4.38;;
20908;SDS011;10614;53.198;6.570;2023-02-28T08:27:56;12.23;;;4.40;;
20908;SDS011;10614;53.198;6.570;2023-02-28T08:29:57;9.80;;;4.35;;
20908;SDS011;10614;53.198;6.570;2023-02-28T08:31:59;8.93;;;4.45;;
20908;SDS011;10614;53.198;6.570;2023-02-28T08:34:05;9.48;;;4.82;;
20908;SDS011;10614;53.198;6.570;2023-02-28T08:36:08;12.35;;;4.90;;
20908;SDS011;10614;53.198;6.570;2023-02-28T08:38:10;8.57;;;4.15;;
20908;SDS011;10614;53.198;6.570;2023-02-28T08:40:12;8.02;;;4.13;;
20908;SDS011;10614;53.198;6.570;2023-02-28T08:42:18;8.55;;;3.95;;
20908;SDS011;10614;53.198;6.570;2023-02-28T08:44:19;9.02;;;4.30;;
20908;SDS011;10614;53.198;6.570;2023-02-28T08:46:21;11.15;;;4.75;;
20908;SDS011;10614;53.198;6.570;2023-02-28T08:48:24;8.30;;;3.95;;
20908;SDS011;10614;53.198;6.570;2023-02-28T08:50:27;9.35;;;4.65;;
20908;SDS011;10614;53.198;6.570;2023-02-28T08:52:29;9.40;;;4.32;;
20908;SDS011;10614;53.198;6.570;2023-02-28T08:54:31;9.07;;;4.57;;
20908;SDS011;10614;53.198;6.570;2023-02-28T08:56:34;8.40;;;4.15;;
20908;SDS011;10614;53.198;6.570;2023-02-28T08:58:36;8.93;;;4.28;;
20908;SDS011;10614;53.198;6.570;2023-02-28T09:00:38;7.90;;;4.13;;
20908;SDS011;10614;53.198;6.570;2023-02-28T09:02:40;8.77;;;3.97;;
20908;SDS011;10614;53.198;6.570;2023-02-28T09:04:43;11.35;;;4.20;;
20908;SDS011;10614;53.198;6.570;2023-02-28T09:06:47;9.15;;;4.13;;
20908;SDS011;10614;53.198;6.570;2023-02-28T09:08:49;9.93;;;4.63;;
20908;SDS011;10614;53.198;6.570;2023-02-28T09:10:51;7.95;;;3.95;;
20908;SDS011;10614;53.198;6.570;2023-02-28T09:12:54;8.55;;;4.50;;
20908;SDS011;10614;53.198;6.570;2023-02-28T09:14:55;9.15;;;4.40;;
20908;SDS011;10614;53.198;6.570;2023-02-28T09:16:57;9.70;;;4.80;;
20908;SDS011;10614;53.198;6.570;2023-02-28T09:18:59;11.02;;;5.38;;
20908;SDS011;10614;53.198;6.570;2023-02-28T09:21:02;11.50;;;5.15;;
20908;SDS011;10614;53.198;6.570;2023-02-28T09:23:06;8.93;;;4.47;;
20908;SDS011;10614;53.198;6.570;2023-02-28T09:25:08;8.68;;;4.72;;
20908;SDS011;10614;53.198;6.570;2023-02-28T09:27:09;11.80;;;4.93;;
20908;SDS011;10614;53.198;6.570;2023-02-28T09:29:11;10.32;;;5.07;;
20908;SDS011;10614;53.198;6.570;2023-02-28T09:31:15;11.07;;;5.07;;
20908;SDS011;10614;53.198;6.570;2023-02-28T09:33:20;10.73;;;5.18;;
20908;SDS011;10614;53.198;6.570;2023-02-28T09:35:24;12.50;;;5.75;;
20908;SDS011;10614;53.198;6.570;2023-02-28T09:37:26;11.23;;;4.97;;
20908;SDS011;10614;53.198;6.570;2023-02-28T09:39:30;11.55;;;6.13;;
20908;SDS011;10614;53.198;6.570;2023-02-28T09:41:36;8.95;;;4.85;;
20908;SDS011;10614;53.198;6.570;2023-02-28T09:43:47;9.55;;;4.53;;
20908;SDS011;10614;53.198;6.570;2023-02-28T09:45:54;10.93;;;4.88;;
20908;SDS011;10614;53.198;6.570;2023-02-28T09:48:01;10.80;;;4.53;;
20908;SDS011;10614;53.198;6.570;2023-02-28T09:50:11;12.60;;;5.68;;
20908;SDS011;10614;53.198;6.570;2023-02-28T09:52:24;13.88;;;6.28;;
20908;SDS011;10614;53.198;6.570;2023-02-28T09:54:32;11.73;;;5.15;;
20908;SDS011;10614;53.198;6.570;2023-02-28T09:56:36;11.50;;;5.28;;
20908;SDS011;10614;53.198;6.570;2023-02-28T09:58:41;11.07;;;4.97;;
20908;SDS011;10614;53.198;6.570;2023-02-28T10:00:49;10.00;;;4.72;;
20908;SDS011;10614;53.198;6.570;2023-02-28T10:03:02;13.25;;;5.25;;
20908;SDS011;10614;53.198;6.570;2023-02-28T10:05:08;9.20;;;4.70;;
20908;SDS011;10614;53.198;6.570;2023-02-28T10:07:17;12.13;;;5.30;;
20908;SDS011;10614;53.198;6.570;2023-02-28T10:09:26;11.07;;;5.38;;
20908;SDS011;10614;53.198;6.570;2023-02-28T10:13:35;10.27;;;4.72;;
20908;SDS011;10614;53.198;6.570;2023-02-28T10:15:43;8.85;;;4.68;;
20908;SDS011;10614;53.198;6.570;2023-02-28T10:17:48;12.25;;;4.70;;
20908;SDS011;10614;53.198;6.570;2023-02-28T10:19:58;10.02;;;5.03;;
20908;SDS011;10614;53.198;6.570;2023-02-28T10:22:09;11.07;;;5.53;;
20908;SDS011;10614;53.198;6.570;2023-02-28T10:24:19;9.05;;;4.65;;
20908;SDS011;10614;53.198;6.570;2023-02-28T10:26:24;13.98;;;6.32;;
20908;SDS011;10614;53.198;6.570;2023-02-28T10:28:31;14.25;;;5.30;;
20908;SDS011;10614;53.198;6.570;2023-02-28T10:30:32;9.15;;;4.22;;
20908;SDS011;10614;53.198;6.570;2023-02-28T10:32:35;9.45;;;4.82;;
20908;SDS011;10614;53.198;6.570;2023-02-28T10:36:41;11.23;;;4.70;;
20908;SDS011;10614;53.198;6.570;2023-02-28T10:38:45;8.23;;;4.20;;
20908;SDS011;10614;53.198;6.570;2023-02-28T10:40:47;12.90;;;5.28;;
20908;SDS011;10614;53.198;6.570;2023-02-28T10:42:54;11.30;;;5.35;;
20908;SDS011;10614;53.198;6.570;2023-02-28T10:45:10;9.02;;;4.70;;
20908;SDS011;10614;53.198;6.570;2023-02-28T10:47:14;9.07;;;4.80;;
20908;SDS011;10614;53.198;6.570;2023-02-28T10:49:19;8.38;;;4.53;;
20908;SDS011;10614;53.198;6.570;2023-02-28T10:51:23;9.25;;;4.68;;
20908;SDS011;10614;53.198;6.570;2023-02-28T10:53:30;10.40;;;4.00;;
20908;SDS011;10614;53.198;6.570;2023-02-28T10:55:34;12.98;;;5.53;;
20908;SDS011;10614;53.198;6.570;2023-02-28T10:57:36;8.60;;;4.05;;
20908;SDS011;10614;53.198;6.570;2023-02-28T10:59:38;9.70;;;4.50;;
20908;SDS011;10614;53.198;6.570;2023-02-28T11:01:41;8.15;;;4.10;;
20908;SDS011;10614;53.198;6.570;2023-02-28T11:03:49;8.38;;;4.22;;
20908;SDS011;10614;53.198;6.570;2023-02-28T11:05:51;8.90;;;3.78;;
20908;SDS011;10614;53.198;6.570;2023-02-28T11:07:53;6.88;;;3.65;;
20908;SDS011;10614;53.198;6.570;2023-02-28T11:09:57;8.15;;;4.25;;
20908;SDS011;10614;53.198;6.570;2023-02-28T11:11:59;8.55;;;4.28;;
20908;SDS011;10614;53.198;6.570;2023-02-28T11:14:03;7.45;;;3.53;;
20908;SDS011;10614;53.198;6.570;2023-02-28T11:16:07;8.43;;;3.00;;
20908;SDS011;10614;53.198;6.570;2023-02-28T11:18:19;7.30;;;3.47;;
20908;SDS011;10614;53.198;6.570;2023-02-28T11:20:25;5.70;;;3.03;;
20908;SDS011;10614;53.198;6.570;2023-02-28T11:22:30;6.40;;;3.03;;
20908;SDS011;10614;53.198;6.570;2023-02-28T11:24:36;8.77;;;3.35;;
20908;SDS011;10614;53.198;6.570;2023-02-28T11:26:44;6.35;;;3.33;;
20908;SDS011;10614;53.198;6.570;2023-02-28T11:28:46;7.28;;;3.00;;
20908;SDS011;10614;53.198;6.570;2023-02-28T11:30:49;6.32;;;2.40;;
20908;SDS011;10614;53.198;6.570;2023-02-28T11:33:16;7.00;;;3.90;;
20908;SDS011;10614;53.198;6.570;2023-02-28T11:35:24;9.15;;;4.13;;
20908;SDS011;10614;53.198;6.570;2023-02-28T11:37:30;7.53;;;3.25;;
20908;SDS011;10614;53.198;6.570;2023-02-28T11:39:33;8.38;;;3.55;;
20908;SDS011;10614;53.198;6.570;2023-02-28T11:41:44;5.63;;;3.17;;
20908;SDS011;10614;53.198;6.570;2023-02-28T11:44:05;6.57;;;3.22;;
20908;SDS011;10614;53.198;6.570;2023-02-28T11:46:29;6.50;;;2.95;;
20908;SDS011;10614;53.198;6.570;2023-02-28T11:48:42;6.53;;;3.65;;
20908;SDS011;10614;53.198;6.570;2023-02-28T11:50:55;8.35;;;3.25;;
20908;SDS011;10614;53.198;6.570;2023-02-28T11:53:05;6.78;;;3.13;;
20908;SDS011;10614;53.198;6.570;2023-02-28T11:55:16;7.60;;;3.72;;
20908;SDS011;10614;53.198;6.570;2023-02-28T11:57:26;5.88;;;2.95;;
20908;SDS011;10614;53.198;6.570;2023-02-28T11:59:36;7.75;;;2.92;;
20908;SDS011;10614;53.198;6.570;2023-02-28T12:01:58;8.90;;;2.90;;
20908;SDS011;10614;53.198;6.570;2023-02-28T12:04:24;6.95;;;3.15;;
20908;SDS011;10614;53.198;6.570;2023-02-28T12:06:31;6.53;;;3.00;;
20908;SDS011;10614;53.198;6.570;2023-02-28T12:08:43;6.45;;;3.20;;
20908;SDS011;10614;53.198;6.570;2023-02-28T12:10:52;5.93;;;2.67;;
20908;SDS011;10614;53.198;6.570;2023-02-28T12:17:55;8.85;;;2.70;;
20908;SDS011;10614;53.198;6.570;2023-02-28T12:20:13;5.32;;;2.55;;
20908;SDS011;10614;53.198;6.570;2023-02-28T12:22:28;8.23;;;3.45;;
20908;SDS011;10614;53.198;6.570;2023-02-28T12:24:39;7.47;;;3.30;;
20908;SDS011;10614;53.198;6.570;2023-02-28T12:27:00;5.82;;;2.95;;
20908;SDS011;10614;53.198;6.570;2023-02-28T12:29:08;7.00;;;3.28;;
20908;SDS011;10614;53.198;6.570;2023-02-28T12:31:15;6.40;;;2.15;;
20908;SDS011;10614;53.198;6.570;2023-02-28T12:33:20;8.30;;;3.13;;
20908;SDS011;10614;53.198;6.570;2023-02-28T12:35:28;4.55;;;2.75;;
20908;SDS011;10614;53.198;6.570;2023-02-28T12:37:36;6.45;;;2.90;;
20908;SDS011;10614;53.198;6.570;2023-02-28T12:39:44;5.90;;;3.05;;
20908;SDS011;10614;53.198;6.570;2023-02-28T12:41:48;7.95;;;4.00;;
20908;SDS011;10614;53.198;6.570;2023-02-28T12:43:55;5.65;;;2.45;;
20908;SDS011;10614;53.198;6.570;2023-02-28T12:46:02;5.00;;;2.55;;
20908;SDS011;10614;53.198;6.570;2023-02-28T12:48:12;8.18;;;3.22;;
20908;SDS011;10614;53.198;6.570;2023-02-28T12:50:16;6.32;;;2.80;;
20908;SDS011;10614;53.198;6.570;2023-02-28T12:52:22;6.65;;;3.28;;
20908;SDS011;10614;53.198;6.570;2023-02-28T12:54:29;6.30;;;2.90;;
20908;SDS011;10614;53.198;6.570;2023-02-28T12:56:39;5.43;;;2.72;;